sensor_id;sensor_type;location;lat;lon;timestamp;pressure;altitude;pressure_sealevel;temperature;humidity
55466;BME280;41329;41.594;23.810;2023-04-24T00:01:15;95228.94;;;10.37;64.64
55466;BME280;41329;41.594;23.810;2023-04-24T00:03:42;95223.00;;;10.35;64.26
55466;BME280;41329;41.594;23.810;2023-04-24T00:06:08;95215.81;;;10.31;64.19
55466;BME280;41329;41.594;23.810;2023-04-24T00:08:34;95233.13;;;10.28;64.06
55466;BME280;41329;41.594;23.810;2023-04-24T00:11:01;95227.97;;;10.26;64.25
55466;BME280;41329;41.594;23.810;2023-04-24T00:13:26;95221.97;;;10.21;64.16
55466;BME280;41329;41.594;23.810;2023-04-24T00:15:54;95226.22;;;10.15;64.32
55466;BME280;41329;41.594;23.810;2023-04-24T00:18:19;95219.84;;;10.11;64.40
55466;BME280;41329;41.594;23.810;2023-04-24T00:20:45;95190.25;;;9.89;64.82
55466;BME280;41329;41.594;23.810;2023-04-24T00:23:11;95213.31;;;10.00;65.21
55466;BME280;41329;41.594;23.810;2023-04-24T00:25:37;95215.69;;;10.01;65.51
55466;BME280;41329;41.594;23.810;2023-04-24T00:28:03;95200.16;;;9.93;65.79
55466;BME280;41329;41.594;23.810;2023-04-24T00:30:29;95220.75;;;9.96;65.98
55466;BME280;41329;41.594;23.810;2023-04-24T00:32:54;95215.22;;;9.96;66.12
55466;BME280;41329;41.594;23.810;2023-04-24T00:35:20;95208.53;;;9.97;65.96
55466;BME280;41329;41.594;23.810;2023-04-24T00:37:45;95200.56;;;9.92;66.32
55466;BME280;41329;41.594;23.810;2023-04-24T00:40:11;95190.25;;;9.89;66.79
55466;BME280;41329;41.594;23.810;2023-04-24T00:42:37;95187.88;;;9.91;66.88
55466;BME280;41329;41.594;23.810;2023-04-24T00:45:03;95178.97;;;9.75;66.98
55466;BME280;41329;41.594;23.810;2023-04-24T00:47:29;95190.13;;;9.82;66.64
55466;BME280;41329;41.594;23.810;2023-04-24T00:49:55;95191.34;;;9.84;66.64
55466;BME280;41329;41.594;23.810;2023-04-24T00:52:20;95195.72;;;9.85;66.83
55466;BME280;41329;41.594;23.810;2023-04-24T00:54:49;95192.28;;;9.69;66.98
55466;BME280;41329;41.594;23.810;2023-04-24T00:57:15;95172.81;;;9.62;66.80
55466;BME280;41329;41.594;23.810;2023-04-24T00:59:41;95175.91;;;9.57;66.47
55466;BME280;41329;41.594;23.810;2023-04-24T01:02:09;95155.03;;;9.37;66.50
55466;BME280;41329;41.594;23.810;2023-04-24T01:04:36;95204.38;;;9.61;66.37
55466;BME280;41329;41.594;23.810;2023-04-24T01:07:02;95205.16;;;9.62;66.57
55466;BME280;41329;41.594;23.810;2023-04-24T01:09:28;95189.16;;;9.48;66.90
55466;BME280;41329;41.594;23.810;2023-04-24T01:11:53;95203.88;;;9.56;67.31
55466;BME280;41329;41.594;23.810;2023-04-24T01:14:20;95201.56;;;9.58;67.51
55466;BME280;41329;41.594;23.810;2023-04-24T01:16:45;95193.56;;;9.53;67.56
55466;BME280;41329;41.594;23.810;2023-04-24T01:19:11;95198.50;;;9.63;67.63
55466;BME280;41329;41.594;23.810;2023-04-24T01:21:39;95172.59;;;9.48;67.47
55466;BME280;41329;41.594;23.810;2023-04-24T01:24:07;95188.97;;;9.60;67.09
55466;BME280;41329;41.594;23.810;2023-04-24T01:26:33;95189.34;;;9.59;67.30
55466;BME280;41329;41.594;23.810;2023-04-24T01:28:58;95168.06;;;9.37;67.13
55466;BME280;41329;41.594;23.810;2023-04-24T01:31:24;95178.28;;;9.36;67.33
55466;BME280;41329;41.594;23.810;2023-04-24T01:33:51;95185.03;;;9.39;67.26
55466;BME280;41329;41.594;23.810;2023-04-24T01:36:16;95187.06;;;9.42;67.21
55466;BME280;41329;41.594;23.810;2023-04-24T01:38:43;95189.34;;;9.36;67.21
55466;BME280;41329;41.594;23.810;2023-04-24T01:41:09;95197.25;;;9.38;67.24
55466;BME280;41329;41.594;23.810;2023-04-24T01:43:35;95179.56;;;9.20;66.59
55466;BME280;41329;41.594;23.810;2023-04-24T01:46:01;95192.72;;;9.26;66.45
55466;BME280;41329;41.594;23.810;2023-04-24T01:48:26;95185.94;;;9.24;66.47
55466;BME280;41329;41.594;23.810;2023-04-24T01:50:52;95181.53;;;9.19;66.93
55466;BME280;41329;41.594;23.810;2023-04-24T01:53:18;95157.06;;;8.99;67.36
55466;BME280;41329;41.594;23.810;2023-04-24T01:55:43;95174.59;;;9.06;68.24
55466;BME280;41329;41.594;23.810;2023-04-24T01:58:09;95183.09;;;8.98;68.80
55466;BME280;41329;41.594;23.810;2023-04-24T02:00:34;95159.31;;;8.71;69.09
55466;BME280;41329;41.594;23.810;2023-04-24T02:03:00;95182.50;;;8.89;68.59
55466;BME280;41329;41.594;23.810;2023-04-24T02:05:27;95161.41;;;8.77;67.87
55466;BME280;41329;41.594;23.810;2023-04-24T02:07:52;95171.47;;;8.89;68.08
55466;BME280;41329;41.594;23.810;2023-04-24T02:10:18;95174.38;;;8.96;68.44
55466;BME280;41329;41.594;23.810;2023-04-24T02:12:43;95164.72;;;8.86;68.25
55466;BME280;41329;41.594;23.810;2023-04-24T02:15:09;95162.47;;;8.92;68.34
55466;BME280;41329;41.594;23.810;2023-04-24T02:17:35;95179.03;;;8.92;68.51
55466;BME280;41329;41.594;23.810;2023-04-24T02:20:00;95172.72;;;8.91;68.51
55466;BME280;41329;41.594;23.810;2023-04-24T02:22:25;95177.56;;;8.98;68.55
55466;BME280;41329;41.594;23.810;2023-04-24T02:24:51;95178.44;;;9.02;68.71
55466;BME280;41329;41.594;23.810;2023-04-24T02:27:16;95189.34;;;8.95;68.80
55466;BME280;41329;41.594;23.810;2023-04-24T02:29:42;95171.63;;;8.96;68.73
55466;BME280;41329;41.594;23.810;2023-04-24T02:32:07;95178.06;;;9.03;68.86
55466;BME280;41329;41.594;23.810;2023-04-24T02:34:36;95174.75;;;8.94;69.21
55466;BME280;41329;41.594;23.810;2023-04-24T02:37:01;95183.16;;;9.01;69.51
55466;BME280;41329;41.594;23.810;2023-04-24T02:39:27;95166.63;;;9.01;69.45
55466;BME280;41329;41.594;23.810;2023-04-24T02:41:52;95134.81;;;8.88;69.83
55466;BME280;41329;41.594;23.810;2023-04-24T02:44:18;95136.13;;;8.94;70.15
55466;BME280;41329;41.594;23.810;2023-04-24T02:46:43;95147.03;;;9.10;70.37
55466;BME280;41329;41.594;23.810;2023-04-24T02:49:08;95146.19;;;9.06;70.57
55466;BME280;41329;41.594;23.810;2023-04-24T02:51:34;95134.22;;;8.98;70.45
55466;BME280;41329;41.594;23.810;2023-04-24T02:54:00;95143.19;;;9.14;70.28
55466;BME280;41329;41.594;23.810;2023-04-24T02:56:25;95146.31;;;9.13;70.61
55466;BME280;41329;41.594;23.810;2023-04-24T02:58:50;95141.88;;;9.08;70.55
55466;BME280;41329;41.594;23.810;2023-04-24T03:01:16;95139.13;;;9.08;70.33
55466;BME280;41329;41.594;23.810;2023-04-24T03:03:41;95148.41;;;9.19;70.49
55466;BME280;41329;41.594;23.810;2023-04-24T03:06:07;95147.28;;;9.24;70.09
55466;BME280;41329;41.594;23.810;2023-04-24T03:08:33;95160.00;;;9.28;69.99
55466;BME280;41329;41.594;23.810;2023-04-24T03:10:59;95134.59;;;9.19;69.71
55466;BME280;41329;41.594;23.810;2023-04-24T03:13:24;95145.88;;;9.33;69.48
55466;BME280;41329;41.594;23.810;2023-04-24T03:15:50;95149.88;;;9.36;69.40
55466;BME280;41329;41.594;23.810;2023-04-24T03:18:16;95126.38;;;9.23;69.50
55466;BME280;41329;41.594;23.810;2023-04-24T03:20:42;95148.34;;;9.38;69.05
55466;BME280;41329;41.594;23.810;2023-04-24T03:23:07;95149.16;;;9.39;69.16
55466;BME280;41329;41.594;23.810;2023-04-24T03:25:33;95148.34;;;9.38;68.94
55466;BME280;41329;41.594;23.810;2023-04-24T03:27:58;95130.31;;;9.22;68.85
55466;BME280;41329;41.594;23.810;2023-04-24T03:30:24;95138.06;;;9.35;68.44
55466;BME280;41329;41.594;23.810;2023-04-24T03:32:49;95134.06;;;9.33;68.65
55466;BME280;41329;41.594;23.810;2023-04-24T03:35:15;95119.31;;;9.03;68.86
55466;BME280;41329;41.594;23.810;2023-04-24T03:37:40;95134.84;;;9.11;68.90
55466;BME280;41329;41.594;23.810;2023-04-24T03:40:06;95131.53;;;9.02;69.15
55466;BME280;41329;41.594;23.810;2023-04-24T03:42:32;95144.03;;;8.96;69.26
55466;BME280;41329;41.594;23.810;2023-04-24T03:44:57;95137.97;;;8.87;69.26
55466;BME280;41329;41.594;23.810;2023-04-24T03:47:23;95150.44;;;8.81;69.08
55466;BME280;41329;41.594;23.810;2023-04-24T03:49:48;95154.22;;;8.73;69.59
55466;BME280;41329;41.594;23.810;2023-04-24T03:52:14;95144.06;;;8.77;70.00
55466;BME280;41329;41.594;23.810;2023-04-24T03:54:39;95146.81;;;8.77;70.01
55466;BME280;41329;41.594;23.810;2023-04-24T03:57:05;95112.94;;;8.57;70.13
55466;BME280;41329;41.594;23.810;2023-04-24T03:59:30;95149.56;;;8.77;70.27
55466;BME280;41329;41.594;23.810;2023-04-24T04:01:56;95139.84;;;8.64;70.64
55466;BME280;41329;41.594;23.810;2023-04-24T04:04:21;95149.00;;;8.68;70.95
55466;BME280;41329;41.594;23.810;2023-04-24T04:06:47;95148.19;;;8.67;71.41
55466;BME280;41329;41.594;23.810;2023-04-24T04:09:13;95130.66;;;8.56;71.21
55466;BME280;41329;41.594;23.810;2023-04-24T04:11:38;95144.66;;;8.67;71.21
55466;BME280;41329;41.594;23.810;2023-04-24T04:14:04;95152.63;;;8.72;71.37
55466;BME280;41329;41.594;23.810;2023-04-24T04:16:29;95102.50;;;8.47;71.33
55466;BME280;41329;41.594;23.810;2023-04-24T04:18:55;95147.97;;;8.76;71.27
55466;BME280;41329;41.594;23.810;2023-04-24T04:21:21;95139.69;;;8.76;71.55
55466;BME280;41329;41.594;23.810;2023-04-24T04:23:46;95153.69;;;8.86;71.78
55466;BME280;41329;41.594;23.810;2023-04-24T04:26:12;95149.66;;;8.80;71.36
55466;BME280;41329;41.594;23.810;2023-04-24T04:28:38;95168.38;;;8.90;71.46
55466;BME280;41329;41.594;23.810;2023-04-24T04:31:04;95157.31;;;8.90;71.19
55466;BME280;41329;41.594;23.810;2023-04-24T04:33:30;95177.56;;;8.98;71.15
55466;BME280;41329;41.594;23.810;2023-04-24T04:35:56;95155.53;;;8.79;71.48
55466;BME280;41329;41.594;23.810;2023-04-24T04:38:22;95153.50;;;8.76;71.20
55466;BME280;41329;41.594;23.810;2023-04-24T04:40:48;95161.09;;;8.82;71.35
55466;BME280;41329;41.594;23.810;2023-04-24T04:43:13;95160.69;;;8.80;71.25
55466;BME280;41329;41.594;23.810;2023-04-24T04:45:40;95156.75;;;8.81;71.65
55466;BME280;41329;41.594;23.810;2023-04-24T04:48:08;95172.50;;;9.00;72.15
55466;BME280;41329;41.594;23.810;2023-04-24T04:50:37;95172.59;;;9.07;72.16
55466;BME280;41329;41.594;23.810;2023-04-24T04:53:02;95162.31;;;9.04;72.08
55466;BME280;41329;41.594;23.810;2023-04-24T04:55:27;95159.00;;;9.17;72.15
55466;BME280;41329;41.594;23.810;2023-04-24T04:57:53;95149.25;;;9.01;71.78
55466;BME280;41329;41.594;23.810;2023-04-24T05:00:20;95153.84;;;8.93;71.96
55466;BME280;41329;41.594;23.810;2023-04-24T05:02:46;95165.31;;;8.95;72.37
55466;BME280;41329;41.594;23.810;2023-04-24T05:05:12;95162.13;;;8.93;72.79
55466;BME280;41329;41.594;23.810;2023-04-24T05:07:38;95158.59;;;8.96;72.88
55466;BME280;41329;41.594;23.810;2023-04-24T05:10:04;95161.50;;;9.03;72.96
55466;BME280;41329;41.594;23.810;2023-04-24T05:12:29;95170.25;;;8.86;73.14
55466;BME280;41329;41.594;23.810;2023-04-24T05:14:55;95167.72;;;8.59;74.64
55466;BME280;41329;41.594;23.810;2023-04-24T05:17:20;95161.84;;;8.60;74.86
55466;BME280;41329;41.594;23.810;2023-04-24T05:19:46;95166.72;;;8.67;74.84
55466;BME280;41329;41.594;23.810;2023-04-24T05:22:11;95164.53;;;8.76;75.15
55466;BME280;41329;41.594;23.810;2023-04-24T05:24:37;95175.50;;;8.72;75.29
55466;BME280;41329;41.594;23.810;2023-04-24T05:27:03;95162.13;;;8.74;75.39
55466;BME280;41329;41.594;23.810;2023-04-24T05:29:32;95168.72;;;8.89;75.36
55466;BME280;41329;41.594;23.810;2023-04-24T05:31:58;95176.84;;;9.01;75.34
55466;BME280;41329;41.594;23.810;2023-04-24T05:34:24;95173.19;;;9.16;75.03
55466;BME280;41329;41.594;23.810;2023-04-24T05:36:50;95178.09;;;9.26;74.63
55466;BME280;41329;41.594;23.810;2023-04-24T05:39:16;95172.72;;;9.33;74.42
55466;BME280;41329;41.594;23.810;2023-04-24T05:41:41;95168.88;;;9.41;74.35
55466;BME280;41329;41.594;23.810;2023-04-24T05:44:07;95165.91;;;9.49;74.34
55466;BME280;41329;41.594;23.810;2023-04-24T05:46:32;95174.72;;;9.58;74.80
55466;BME280;41329;41.594;23.810;2023-04-24T05:48:58;95169.38;;;9.69;74.86
55466;BME280;41329;41.594;23.810;2023-04-24T05:51:23;95177.47;;;9.81;74.80
55466;BME280;41329;41.594;23.810;2023-04-24T05:53:49;95174.84;;;9.88;74.28
55466;BME280;41329;41.594;23.810;2023-04-24T05:56:15;95155.78;;;9.83;73.92
55466;BME280;41329;41.594;23.810;2023-04-24T05:58:40;95164.56;;;9.88;73.14
55466;BME280;41329;41.594;23.810;2023-04-24T06:01:06;95152.25;;;9.82;73.65
55466;BME280;41329;41.594;23.810;2023-04-24T06:03:31;95159.53;;;9.94;73.43
55466;BME280;41329;41.594;23.810;2023-04-24T06:05:58;95166.09;;;10.08;73.46
55466;BME280;41329;41.594;23.810;2023-04-24T06:08:23;95171.47;;;10.01;73.38
55466;BME280;41329;41.594;23.810;2023-04-24T06:10:48;95164.97;;;10.13;73.72
55466;BME280;41329;41.594;23.810;2023-04-24T06:13:14;95161.94;;;10.21;73.96
55466;BME280;41329;41.594;23.810;2023-04-24T06:15:40;95142.81;;;10.09;73.42
55466;BME280;41329;41.594;23.810;2023-04-24T06:18:06;95139.72;;;10.14;72.98
55466;BME280;41329;41.594;23.810;2023-04-24T06:20:31;95145.63;;;10.13;72.70
55466;BME280;41329;41.594;23.810;2023-04-24T06:22:56;95151.50;;;10.37;73.25
55466;BME280;41329;41.594;23.810;2023-04-24T06:25:25;95155.34;;;10.59;74.29
55466;BME280;41329;41.594;23.810;2023-04-24T06:27:51;95151.94;;;10.72;74.31
55466;BME280;41329;41.594;23.810;2023-04-24T06:30:17;95138.47;;;10.71;72.41
55466;BME280;41329;41.594;23.810;2023-04-24T06:32:42;95130.63;;;10.73;72.62
55466;BME280;41329;41.594;23.810;2023-04-24T06:35:08;95148.44;;;10.75;72.87
55466;BME280;41329;41.594;23.810;2023-04-24T06:37:35;95154.97;;;10.93;72.83
55466;BME280;41329;41.594;23.810;2023-04-24T06:40:00;95149.06;;;10.95;71.25
55466;BME280;41329;41.594;23.810;2023-04-24T06:42:26;95133.50;;;10.83;71.80
55466;BME280;41329;41.594;23.810;2023-04-24T06:44:51;95141.00;;;10.83;71.05
55466;BME280;41329;41.594;23.810;2023-04-24T06:47:16;95143.59;;;11.02;71.09
55466;BME280;41329;41.594;23.810;2023-04-24T06:49:42;95138.97;;;11.13;70.89
55466;BME280;41329;41.594;23.810;2023-04-24T06:52:07;95141.44;;;11.21;70.71
55466;BME280;41329;41.594;23.810;2023-04-24T06:54:33;95120.84;;;11.19;69.77
55466;BME280;41329;41.594;23.810;2023-04-24T06:57:00;95126.50;;;11.33;69.64
55466;BME280;41329;41.594;23.810;2023-04-24T06:59:26;95113.84;;;11.32;68.42
55466;BME280;41329;41.594;23.810;2023-04-24T07:01:52;95127.78;;;11.39;68.81
55466;BME280;41329;41.594;23.810;2023-04-24T07:04:18;95132.22;;;11.50;68.34
55466;BME280;41329;41.594;23.810;2023-04-24T07:06:45;95117.25;;;11.58;68.03
55466;BME280;41329;41.594;23.810;2023-04-24T07:09:11;95133.34;;;11.86;68.49
55466;BME280;41329;41.594;23.810;2023-04-24T07:11:38;95130.97;;;11.84;68.97
55466;BME280;41329;41.594;23.810;2023-04-24T07:14:06;95129.97;;;12.10;68.50
55466;BME280;41329;41.594;23.810;2023-04-24T07:16:31;95122.53;;;12.24;67.53
55466;BME280;41329;41.594;23.810;2023-04-24T07:18:57;95070.94;;;12.09;67.28
55466;BME280;41329;41.594;23.810;2023-04-24T07:21:22;95119.47;;;12.47;66.81
55466;BME280;41329;41.594;23.810;2023-04-24T07:23:47;95127.44;;;12.52;68.03
55466;BME280;41329;41.594;23.810;2023-04-24T07:26:13;95128.28;;;12.63;68.11
55466;BME280;41329;41.594;23.810;2023-04-24T07:28:40;95119.66;;;12.82;66.39
55466;BME280;41329;41.594;23.810;2023-04-24T07:31:06;95101.03;;;12.90;67.00
55466;BME280;41329;41.594;23.810;2023-04-24T07:33:31;95098.31;;;13.00;65.89
55466;BME280;41329;41.594;23.810;2023-04-24T07:35:57;95108.31;;;13.26;65.77
55466;BME280;41329;41.594;23.810;2023-04-24T07:38:22;95087.66;;;13.30;66.57
55466;BME280;41329;41.594;23.810;2023-04-24T07:40:48;95109.50;;;13.46;64.26
55466;BME280;41329;41.594;23.810;2023-04-24T07:43:14;95111.91;;;13.47;65.80
55466;BME280;41329;41.594;23.810;2023-04-24T07:45:40;95109.94;;;13.65;65.41
55466;BME280;41329;41.594;23.810;2023-04-24T07:48:06;95098.00;;;13.65;65.59
55466;BME280;41329;41.594;23.810;2023-04-24T07:50:31;95109.13;;;13.96;64.48
55466;BME280;41329;41.594;23.810;2023-04-24T07:52:57;95109.91;;;14.14;63.02
55466;BME280;41329;41.594;23.810;2023-04-24T07:55:22;95106.72;;;14.33;63.57
55466;BME280;41329;41.594;23.810;2023-04-24T07:57:48;95082.88;;;14.08;63.74
55466;BME280;41329;41.594;23.810;2023-04-24T08:00:14;95092.41;;;14.38;64.20
55466;BME280;41329;41.594;23.810;2023-04-24T08:02:39;95106.25;;;14.63;62.11
55466;BME280;41329;41.594;23.810;2023-04-24T08:05:05;95104.19;;;14.84;61.96
55466;BME280;41329;41.594;23.810;2023-04-24T08:07:31;95109.22;;;15.10;62.26
55466;BME280;41329;41.594;23.810;2023-04-24T08:09:57;95088.50;;;15.11;61.43
55466;BME280;41329;41.594;23.810;2023-04-24T08:12:22;95101.56;;;15.35;60.00
55466;BME280;41329;41.594;23.810;2023-04-24T08:14:48;95097.16;;;15.31;59.74
55466;BME280;41329;41.594;23.810;2023-04-24T08:17:13;95097.59;;;15.26;60.36
55466;BME280;41329;41.594;23.810;2023-04-24T08:19:40;95100.69;;;15.45;59.39
55466;BME280;41329;41.594;23.810;2023-04-24T08:22:13;95100.28;;;15.47;60.67
55466;BME280;41329;41.594;23.810;2023-04-24T08:24:38;95077.00;;;15.06;57.80
55466;BME280;41329;41.594;23.810;2023-04-24T08:27:03;95095.19;;;15.35;59.18
55466;BME280;41329;41.594;23.810;2023-04-24T08:29:29;95075.59;;;15.49;59.14
55466;BME280;41329;41.594;23.810;2023-04-24T08:31:54;95063.63;;;15.48;56.97
55466;BME280;41329;41.594;23.810;2023-04-24T08:34:21;95078.63;;;15.68;57.79
55466;BME280;41329;41.594;23.810;2023-04-24T08:36:46;95072.06;;;15.89;56.99
55466;BME280;41329;41.594;23.810;2023-04-24T08:39:12;95070.72;;;16.07;57.27
55466;BME280;41329;41.594;23.810;2023-04-24T08:41:37;95068.56;;;16.22;57.00
55466;BME280;41329;41.594;23.810;2023-04-24T08:44:04;95066.88;;;16.31;55.44
55466;BME280;41329;41.594;23.810;2023-04-24T08:46:30;95055.63;;;16.42;54.72
55466;BME280;41329;41.594;23.810;2023-04-24T08:48:57;95046.75;;;16.13;55.20
55466;BME280;41329;41.594;23.810;2023-04-24T08:51:26;95052.06;;;16.38;55.61
55466;BME280;41329;41.594;23.810;2023-04-24T08:53:54;95050.91;;;16.72;55.90
55466;BME280;41329;41.594;23.810;2023-04-24T08:56:21;95042.84;;;17.08;57.88
55466;BME280;41329;41.594;23.810;2023-04-24T08:58:50;95040.44;;;17.36;54.62
55466;BME280;41329;41.594;23.810;2023-04-24T09:01:16;95031.19;;;17.43;53.81
55466;BME280;41329;41.594;23.810;2023-04-24T09:03:43;95027.13;;;17.47;52.24
55466;BME280;41329;41.594;23.810;2023-04-24T09:06:09;95022.19;;;17.55;52.14
55466;BME280;41329;41.594;23.810;2023-04-24T09:08:36;95027.50;;;17.72;53.35
55466;BME280;41329;41.594;23.810;2023-04-24T09:11:01;95006.44;;;17.41;52.76
55466;BME280;41329;41.594;23.810;2023-04-24T09:13:28;95021.31;;;17.61;51.63
55466;BME280;41329;41.594;23.810;2023-04-24T09:15:55;95019.16;;;17.69;52.16
55466;BME280;41329;41.594;23.810;2023-04-24T09:18:22;95000.78;;;17.45;51.55
55466;BME280;41329;41.594;23.810;2023-04-24T09:21:07;94996.59;;;17.56;53.35
55466;BME280;41329;41.594;23.810;2023-04-24T09:23:33;95011.22;;;17.91;50.44
55466;BME280;41329;41.594;23.810;2023-04-24T09:26:02;95005.25;;;18.12;51.05
55466;BME280;41329;41.594;23.810;2023-04-24T09:28:36;94999.06;;;18.20;49.37
55466;BME280;41329;41.594;23.810;2023-04-24T09:31:12;94998.50;;;18.09;49.78
55466;BME280;41329;41.594;23.810;2023-04-24T09:33:39;94982.94;;;18.28;49.00
55466;BME280;41329;41.594;23.810;2023-04-24T09:36:05;94986.63;;;18.44;50.75
55466;BME280;41329;41.594;23.810;2023-04-24T09:38:37;94978.31;;;18.60;47.88
55466;BME280;41329;41.594;23.810;2023-04-24T09:41:06;94980.16;;;18.86;48.29
55466;BME280;41329;41.594;23.810;2023-04-24T09:43:32;94977.56;;;18.95;48.16
55466;BME280;41329;41.594;23.810;2023-04-24T09:45:59;94983.75;;;18.87;48.03
55466;BME280;41329;41.594;23.810;2023-04-24T09:48:34;94969.75;;;19.03;47.87
55466;BME280;41329;41.594;23.810;2023-04-24T09:51:00;94978.66;;;19.17;46.39
55466;BME280;41329;41.594;23.810;2023-04-24T09:53:27;94969.53;;;19.33;47.59
55466;BME280;41329;41.594;23.810;2023-04-24T09:55:53;94967.25;;;19.60;46.76
55466;BME280;41329;41.594;23.810;2023-04-24T09:58:24;94953.03;;;19.35;46.58
55466;BME280;41329;41.594;23.810;2023-04-24T10:00:53;94951.47;;;19.34;44.69
55466;BME280;41329;41.594;23.810;2023-04-24T10:03:20;94958.50;;;19.42;45.23
55466;BME280;41329;41.594;23.810;2023-04-24T10:05:46;94954.47;;;19.59;45.02
55466;BME280;41329;41.594;23.810;2023-04-24T10:08:12;94953.75;;;19.71;45.55
55466;BME280;41329;41.594;23.810;2023-04-24T10:10:44;94952.00;;;19.61;44.58
55466;BME280;41329;41.594;23.810;2023-04-24T10:13:10;94950.25;;;19.51;44.67
55466;BME280;41329;41.594;23.810;2023-04-24T10:15:37;94929.38;;;19.68;46.15
55466;BME280;41329;41.594;23.810;2023-04-24T10:18:04;94925.69;;;19.71;43.48
55466;BME280;41329;41.594;23.810;2023-04-24T10:20:32;94937.56;;;19.91;44.21
55466;BME280;41329;41.594;23.810;2023-04-24T10:22:59;94932.59;;;19.82;44.88
55466;BME280;41329;41.594;23.810;2023-04-24T10:25:26;94922.19;;;19.83;44.25
55466;BME280;41329;41.594;23.810;2023-04-24T10:27:53;94906.47;;;19.85;43.48
55466;BME280;41329;41.594;23.810;2023-04-24T10:30:19;94909.44;;;20.10;44.16
55466;BME280;41329;41.594;23.810;2023-04-24T10:32:46;94883.16;;;20.17;45.33
55466;BME280;41329;41.594;23.810;2023-04-24T10:35:12;94920.69;;;20.51;44.61
55466;BME280;41329;41.594;23.810;2023-04-24T10:38:05;94920.34;;;20.90;45.38
55466;BME280;41329;41.594;23.810;2023-04-24T10:40:50;94925.78;;;21.10;43.33
55466;BME280;41329;41.594;23.810;2023-04-24T10:43:17;94916.13;;;21.23;42.39
55466;BME280;41329;41.594;23.810;2023-04-24T10:46:00;94915.88;;;21.30;42.39
55466;BME280;41329;41.594;23.810;2023-04-24T10:48:27;94884.25;;;21.26;41.56
55466;BME280;41329;41.594;23.810;2023-04-24T10:50:53;94907.91;;;21.16;42.62
55466;BME280;41329;41.594;23.810;2023-04-24T10:53:20;94894.16;;;21.18;43.10
55466;BME280;41329;41.594;23.810;2023-04-24T10:56:10;94859.38;;;21.00;41.17
55466;BME280;41329;41.594;23.810;2023-04-24T10:58:49;94899.88;;;21.27;39.82
55466;BME280;41329;41.594;23.810;2023-04-24T11:01:26;94892.00;;;21.22;40.57
55466;BME280;41329;41.594;23.810;2023-04-24T11:04:10;94887.41;;;21.16;41.99
55466;BME280;41329;41.594;23.810;2023-04-24T11:06:41;94886.19;;;20.92;41.05
55466;BME280;41329;41.594;23.810;2023-04-24T11:09:09;94869.13;;;20.83;42.13
55466;BME280;41329;41.594;23.810;2023-04-24T11:11:38;94869.72;;;21.28;42.15
55466;BME280;41329;41.594;23.810;2023-04-24T11:14:09;94870.06;;;21.17;41.34
55466;BME280;41329;41.594;23.810;2023-04-24T11:16:47;94861.50;;;21.33;42.10
55466;BME280;41329;41.594;23.810;2023-04-24T11:21:48;94837.72;;;21.72;42.33
55466;BME280;41329;41.594;23.810;2023-04-24T11:24:23;94850.59;;;22.16;41.84
55466;BME280;41329;41.594;23.810;2023-04-24T11:26:51;94838.97;;;22.48;41.08
55466;BME280;41329;41.594;23.810;2023-04-24T11:29:19;94851.59;;;22.43;39.52
55466;BME280;41329;41.594;23.810;2023-04-24T11:31:45;94839.34;;;22.16;37.67
55466;BME280;41329;41.594;23.810;2023-04-24T11:34:17;94843.66;;;21.86;39.81
55466;BME280;41329;41.594;23.810;2023-04-24T11:36:43;94840.34;;;21.88;39.35
55466;BME280;41329;41.594;23.810;2023-04-24T11:39:09;94847.91;;;21.91;39.91
55466;BME280;41329;41.594;23.810;2023-04-24T11:41:36;94830.72;;;21.64;39.74
55466;BME280;41329;41.594;23.810;2023-04-24T11:44:03;94843.38;;;21.93;39.48
55466;BME280;41329;41.594;23.810;2023-04-24T11:46:31;94815.72;;;22.01;39.58
55466;BME280;41329;41.594;23.810;2023-04-24T11:48:58;94820.91;;;22.02;37.76
55466;BME280;41329;41.594;23.810;2023-04-24T11:51:24;94829.56;;;21.86;36.82
55466;BME280;41329;41.594;23.810;2023-04-24T11:53:54;94804.72;;;21.94;37.63
55466;BME280;41329;41.594;23.810;2023-04-24T11:56:24;94798.50;;;21.65;35.72
55466;BME280;41329;41.594;23.810;2023-04-24T11:58:52;94812.66;;;21.27;35.54
55466;BME280;41329;41.594;23.810;2023-04-24T12:01:19;94814.44;;;21.46;35.74
55466;BME280;41329;41.594;23.810;2023-04-24T12:03:48;94816.66;;;21.64;34.75
55466;BME280;41329;41.594;23.810;2023-04-24T12:06:16;94825.66;;;21.71;34.61
55466;BME280;41329;41.594;23.810;2023-04-24T12:08:41;94809.03;;;21.86;35.36
55466;BME280;41329;41.594;23.810;2023-04-24T12:11:07;94788.81;;;21.66;32.70
55466;BME280;41329;41.594;23.810;2023-04-24T12:13:34;94800.31;;;21.71;33.49
55466;BME280;41329;41.594;23.810;2023-04-24T12:16:02;94792.56;;;21.97;33.62
55466;BME280;41329;41.594;23.810;2023-04-24T12:18:28;94783.91;;;21.91;32.76
55466;BME280;41329;41.594;23.810;2023-04-24T12:20:54;94797.00;;;22.07;32.41
55466;BME280;41329;41.594;23.810;2023-04-24T12:23:35;94786.34;;;22.02;32.26
55466;BME280;41329;41.594;23.810;2023-04-24T12:26:04;94784.81;;;22.10;32.73
55466;BME280;41329;41.594;23.810;2023-04-24T12:28:37;94781.75;;;21.95;29.93
55466;BME280;41329;41.594;23.810;2023-04-24T12:31:02;94776.13;;;21.95;32.02
55466;BME280;41329;41.594;23.810;2023-04-24T12:33:33;94754.41;;;22.05;32.12
55466;BME280;41329;41.594;23.810;2023-04-24T12:35:59;94773.31;;;22.26;31.49
55466;BME280;41329;41.594;23.810;2023-04-24T12:38:26;94761.50;;;22.31;31.80
55466;BME280;41329;41.594;23.810;2023-04-24T12:41:12;94770.31;;;22.42;31.87
55466;BME280;41329;41.594;23.810;2023-04-24T12:43:50;94756.28;;;22.51;32.90
55466;BME280;41329;41.594;23.810;2023-04-24T12:46:16;94742.25;;;22.60;32.66
55466;BME280;41329;41.594;23.810;2023-04-24T12:48:41;94752.78;;;22.68;32.19
55466;BME280;41329;41.594;23.810;2023-04-24T12:51:07;94745.53;;;22.58;32.32
55466;BME280;41329;41.594;23.810;2023-04-24T12:53:32;94735.63;;;22.32;31.74
55466;BME280;41329;41.594;23.810;2023-04-24T12:55:58;94732.75;;;22.23;33.43